createdAt,value
2023-04-03T00:00:46.476Z,0.00
2023-04-03T00:01:46.501Z,0.00
2023-04-03T00:02:46.629Z,0.00
2023-04-03T00:03:46.552Z,0.00
2023-04-03T00:04:46.954Z,0.00
2023-04-03T00:05:46.491Z,0.00
2023-04-03T00:06:46.410Z,0.00
2023-04-03T00:07:46.465Z,0.00
2023-04-03T00:08:46.434Z,0.00
2023-04-03T00:09:47.264Z,0.00
2023-04-03T00:10:46.439Z,0.00
2023-04-03T00:11:46.415Z,0.00
2023-04-03T00:12:46.424Z,0.00
2023-04-03T00:13:46.407Z,0.00
2023-04-03T00:14:46.371Z,0.00
2023-04-03T00:15:47.331Z,0.00
2023-04-03T00:16:46.439Z,0.00
2023-04-03T00:17:46.365Z,0.00
2023-04-03T00:18:46.354Z,0.00
2023-04-03T00:19:46.343Z,0.00
2023-04-03T00:20:46.538Z,0.00
2023-04-03T00:21:47.311Z,0.00
2023-04-03T00:22:46.338Z,0.00
2023-04-03T00:23:46.329Z,0.00
2023-04-03T00:24:46.294Z,0.00
2023-04-03T00:25:46.309Z,0.00
2023-04-03T00:26:46.303Z,0.00
2023-04-03T00:27:46.390Z,0.00
2023-04-03T00:28:46.335Z,0.00
2023-04-03T00:29:46.267Z,0.00
2023-04-03T00:30:46.315Z,0.00
2023-04-03T00:31:46.340Z,0.00
2023-04-03T00:32:46.289Z,0.00
2023-04-03T00:33:46.429Z,0.00
2023-04-03T00:34:46.218Z,0.00
2023-04-03T00:35:46.266Z,0.00
2023-04-03T00:36:46.276Z,0.00
2023-04-03T00:37:47.161Z,0.00
2023-04-03T00:38:46.198Z,0.00
2023-04-03T00:39:46.211Z,0.00
2023-04-03T00:40:46.149Z,0.00
2023-04-03T00:41:46.171Z,0.00
2023-04-03T00:42:46.179Z,0.00
2023-04-03T00:43:46.851Z,0.00
2023-04-03T00:44:46.201Z,0.00
2023-04-03T00:45:46.164Z,0.00
2023-04-03T00:46:46.140Z,0.00
2023-04-03T00:47:46.137Z,0.00
2023-04-03T00:48:46.125Z,0.00
2023-04-03T00:49:46.125Z,0.00
2023-04-03T00:50:46.207Z,0.00
2023-04-03T00:51:47.070Z,0.00
2023-04-03T00:52:46.068Z,0.00
2023-04-03T00:53:46.087Z,0.00
2023-04-03T00:54:46.047Z,0.00
2023-04-03T00:55:46.081Z,0.00
2023-04-03T00:56:46.065Z,0.00
2023-04-03T00:57:46.048Z,0.00
2023-04-03T00:58:46.056Z,0.00
2023-04-03T00:59:46.001Z,0.00
2023-04-03T01:00:46.828Z,0.00
2023-04-03T01:01:47.028Z,0.00
2023-04-03T01:02:46.062Z,0.00
2023-04-03T01:03:46.007Z,0.00
2023-04-03T01:04:45.999Z,0.00
2023-04-03T01:05:46.755Z,0.00
2023-04-03T01:06:46.001Z,0.00
2023-04-03T01:07:45.969Z,0.00
2023-04-03T01:08:45.960Z,0.00
2023-04-03T01:09:45.929Z,0.00
2023-04-03T01:10:47.025Z,0.00
2023-04-03T01:11:46.880Z,0.00
2023-04-03T01:12:47.004Z,0.00
2023-04-03T01:13:45.981Z,0.00
2023-04-03T01:14:45.924Z,0.00
2023-04-03T01:15:45.970Z,0.00
2023-04-03T01:16:45.904Z,0.00
2023-04-03T01:17:45.909Z,0.00
2023-04-03T01:18:46.868Z,0.00
2023-04-03T01:19:45.892Z,0.00
2023-04-03T01:20:45.873Z,0.00
2023-04-03T01:21:45.866Z,0.00
2023-04-03T01:22:45.920Z,0.00
2023-04-03T01:23:45.903Z,0.00
2023-04-03T01:24:45.864Z,0.00
2023-04-03T01:25:45.821Z,0.00
2023-04-03T01:26:45.832Z,0.00
2023-04-03T01:27:45.817Z,0.00
2023-04-03T01:28:46.007Z,0.00
2023-04-03T01:29:45.773Z,0.00
2023-04-03T01:30:45.774Z,0.00
2023-04-03T01:31:45.814Z,0.00
2023-04-03T01:32:45.832Z,0.00
2023-04-03T01:33:46.756Z,0.00
2023-04-03T01:34:45.774Z,0.00
2023-04-03T01:35:45.794Z,0.00
2023-04-03T01:36:45.733Z,0.00
2023-04-03T01:37:45.722Z,0.00
2023-04-03T01:38:45.786Z,0.00
2023-04-03T01:39:45.938Z,0.00
2023-04-03T01:40:45.705Z,0.00
2023-04-03T01:41:45.726Z,0.00
2023-04-03T01:42:45.719Z,0.00
2023-04-03T01:43:45.741Z,0.00
2023-04-03T01:44:45.666Z,0.00
2023-04-03T01:45:45.715Z,0.00
2023-04-03T01:46:45.688Z,0.00
2023-04-03T01:47:45.718Z,0.00
2023-04-03T01:48:45.662Z,0.00
2023-04-03T01:49:45.667Z,0.00
2023-04-03T01:50:45.634Z,0.00
2023-04-03T01:51:45.679Z,0.00
2023-04-03T01:52:45.633Z,0.00
2023-04-03T01:53:45.627Z,0.00
2023-04-03T01:54:45.645Z,0.00
2023-04-03T01:55:45.598Z,0.00
2023-04-03T01:56:45.612Z,0.00
2023-04-03T01:57:45.607Z,0.00
2023-04-03T01:58:45.606Z,0.00
2023-04-03T01:59:45.604Z,0.00
2023-04-03T02:00:45.603Z,0.00
2023-04-03T02:01:46.228Z,0.00
2023-04-03T02:02:45.592Z,0.00
2023-04-03T02:03:45.633Z,0.00
2023-04-03T02:04:45.591Z,0.00
2023-04-03T02:05:45.563Z,0.00
2023-04-03T02:06:45.518Z,0.00
2023-04-03T02:07:45.523Z,0.00
2023-04-03T02:08:45.541Z,0.00
2023-04-03T02:09:45.514Z,0.00
2023-04-03T02:10:45.800Z,0.00
2023-04-03T02:11:45.521Z,0.00
2023-04-03T02:12:45.451Z,0.00
2023-04-03T02:13:45.473Z,0.00
2023-04-03T02:14:46.390Z,0.00
2023-04-03T02:15:45.474Z,0.00
2023-04-03T02:16:45.481Z,0.00
2023-04-03T02:17:45.456Z,0.00
2023-04-03T02:18:45.410Z,0.00
2023-04-03T02:19:45.521Z,0.00
2023-04-03T02:20:45.409Z,0.00
2023-04-03T02:21:45.407Z,0.00
2023-04-03T02:22:45.423Z,0.00
2023-04-03T02:23:45.376Z,0.00
2023-04-03T02:24:45.867Z,0.00
2023-04-03T02:25:45.355Z,0.00
2023-04-03T02:26:45.372Z,0.00
2023-04-03T02:27:45.344Z,0.00
2023-04-03T02:28:45.333Z,0.00
2023-04-03T02:29:46.625Z,0.00
2023-04-03T02:30:45.420Z,0.00
2023-04-03T02:31:45.333Z,0.00
2023-04-03T02:32:45.349Z,0.00
2023-04-03T02:33:45.353Z,0.00
2023-04-03T02:34:45.317Z,0.00
2023-04-03T02:35:45.342Z,0.00
2023-04-03T02:36:46.265Z,0.00
2023-04-03T02:37:45.296Z,0.00
2023-04-03T02:38:45.300Z,0.00
2023-04-03T02:39:45.278Z,0.00
2023-04-03T02:40:45.247Z,0.00
2023-04-03T02:41:45.235Z,0.00
2023-04-03T02:42:45.827Z,0.00
2023-04-03T02:43:45.253Z,0.00
2023-04-03T02:44:45.253Z,0.00
2023-04-03T02:45:45.253Z,0.00
2023-04-03T02:46:45.337Z,0.00
2023-04-03T02:47:45.393Z,0.00
2023-04-03T02:48:45.191Z,0.00
2023-04-03T02:49:45.181Z,0.00
2023-04-03T02:50:45.165Z,0.00
2023-04-03T02:51:45.168Z,0.00
2023-04-03T02:52:45.829Z,0.00
2023-04-03T02:53:45.190Z,0.00
2023-04-03T02:54:45.214Z,0.00
2023-04-03T02:55:45.144Z,0.00
2023-04-03T02:56:45.144Z,0.00
2023-04-03T02:57:45.129Z,0.00
2023-04-03T02:58:45.158Z,0.00
2023-04-03T02:59:45.128Z,0.00
2023-04-03T03:00:45.081Z,0.00
2023-04-03T03:01:45.161Z,0.00
2023-04-03T03:02:45.161Z,0.00
2023-04-03T03:03:45.078Z,0.00
2023-04-03T03:04:45.427Z,0.00
2023-04-03T03:05:45.063Z,0.00
2023-04-03T03:06:45.855Z,0.00
2023-04-03T03:07:45.045Z,0.00
2023-04-03T03:08:45.052Z,0.00
2023-04-03T03:09:45.399Z,0.00
2023-04-03T03:10:45.024Z,0.00
2023-04-03T03:11:45.055Z,0.00
2023-04-03T03:12:44.977Z,0.00
2023-04-03T03:13:45.014Z,0.00
2023-04-03T03:14:45.132Z,0.00
2023-04-03T03:15:45.003Z,0.00
2023-04-03T03:16:44.980Z,0.00
2023-04-03T03:17:45.037Z,0.00
2023-04-03T03:18:44.958Z,0.00
2023-04-03T03:19:44.935Z,0.00
2023-04-03T03:20:46.785Z,0.00
2023-04-03T03:21:44.917Z,0.00
2023-04-03T03:22:44.943Z,0.00
2023-04-03T03:23:44.931Z,0.00
2023-04-03T03:24:45.963Z,0.00
2023-04-03T03:25:45.235Z,0.00
2023-04-03T03:26:44.876Z,0.00
2023-04-03T03:27:45.007Z,0.00
2023-04-03T03:28:44.894Z,0.00
2023-04-03T03:29:44.847Z,0.00
2023-04-03T03:30:44.865Z,0.00
2023-04-03T03:31:44.875Z,0.00
2023-04-03T03:32:45.016Z,0.00
2023-04-03T03:33:44.843Z,0.00
2023-04-03T03:34:44.810Z,0.00
2023-04-03T03:35:45.821Z,0.00
2023-04-03T03:36:44.803Z,0.00
2023-04-03T03:37:45.870Z,0.00
2023-04-03T03:38:45.811Z,0.00
2023-04-03T03:39:44.946Z,0.00
2023-04-03T03:40:44.798Z,0.00
2023-04-03T03:41:44.777Z,0.00
2023-04-03T03:42:44.952Z,0.00
2023-04-03T03:43:44.805Z,0.00
2023-04-03T03:44:44.756Z,0.00
2023-04-03T03:45:44.741Z,0.00
2023-04-03T03:46:44.869Z,0.00
2023-04-03T04:02:57.958Z,0.00
2023-04-03T04:03:56.634Z,0.00
2023-04-03T04:04:56.493Z,0.00
2023-04-03T04:05:56.539Z,0.00
2023-04-03T04:06:57.123Z,0.00
2023-04-03T04:07:57.619Z,0.00
2023-04-03T04:08:57.628Z,0.00
2023-04-03T04:09:57.643Z,0.00
2023-04-03T04:10:58.724Z,0.00
2023-04-03T04:11:57.610Z,0.00
2023-04-03T04:12:58.644Z,0.00
2023-04-03T04:13:58.668Z,0.00
2023-04-03T04:14:57.584Z,0.00
2023-04-03T04:15:57.730Z,0.00
2023-04-03T04:16:57.725Z,0.00
2023-04-03T04:17:57.634Z,0.00
2023-04-03T04:18:57.565Z,0.00
2023-04-03T04:19:57.562Z,0.00
2023-04-03T04:20:57.622Z,0.00
2023-04-03T04:21:58.262Z,0.00
2023-04-03T04:22:57.550Z,0.00
2023-04-03T04:23:57.531Z,0.00
2023-04-03T04:24:57.520Z,0.00
2023-04-03T04:25:58.190Z,0.00
2023-04-03T04:26:58.502Z,0.00
2023-04-03T04:27:57.481Z,0.00
2023-04-03T04:28:58.309Z,0.00
2023-04-03T04:29:59.260Z,0.00
2023-04-03T04:30:58.481Z,0.00
2023-04-03T04:31:57.564Z,0.00
2023-04-03T04:32:57.567Z,0.00
2023-04-03T04:33:57.441Z,0.00
2023-04-03T04:34:57.503Z,0.00
2023-04-03T04:35:57.497Z,0.00
2023-04-03T04:36:57.493Z,0.00
2023-04-03T04:37:57.415Z,0.00
2023-04-03T04:38:57.481Z,0.00
2023-04-03T04:39:57.609Z,0.00
2023-04-03T04:40:57.403Z,0.00
2023-04-03T04:41:57.378Z,0.00
2023-04-03T04:42:57.386Z,0.00
2023-04-03T04:43:57.364Z,0.00
2023-04-03T04:44:57.375Z,0.00
2023-04-03T04:45:57.436Z,0.00
2023-04-03T04:46:57.382Z,0.00
2023-04-03T04:47:57.464Z,0.00
2023-04-03T04:48:57.345Z,0.00
2023-04-03T04:49:57.783Z,0.00
2023-04-03T04:50:58.110Z,0.00
2023-04-03T04:51:57.379Z,0.00
2023-04-03T04:52:57.304Z,5.62
2023-04-03T04:53:57.292Z,5.62
2023-04-03T04:54:57.302Z,5.62
2023-04-03T04:55:57.303Z,5.62
2023-04-03T04:56:57.402Z,5.62
2023-04-03T04:57:57.274Z,5.62
2023-04-03T04:58:57.241Z,5.62
2023-04-03T04:59:58.249Z,5.62
2023-04-03T05:00:57.233Z,5.62
2023-04-03T05:01:58.219Z,5.62
2023-04-03T05:02:57.238Z,5.62
2023-04-03T05:03:57.231Z,11.25
2023-04-03T05:04:57.225Z,11.25
2023-04-03T05:05:57.214Z,11.25
2023-04-03T05:06:57.273Z,11.25
2023-04-03T05:07:57.231Z,11.25
2023-04-03T05:08:57.195Z,16.88
2023-04-03T05:09:57.211Z,16.88
2023-04-03T05:10:57.175Z,16.88
2023-04-03T05:11:58.131Z,16.88
2023-04-03T05:12:57.158Z,16.88
2023-04-03T05:13:58.144Z,16.88
2023-04-03T05:14:57.164Z,16.88
2023-04-03T05:15:57.159Z,16.88
2023-04-03T05:16:57.140Z,16.88
2023-04-03T05:17:57.354Z,22.50
2023-04-03T05:18:57.157Z,22.50
2023-04-03T05:19:57.093Z,22.50
2023-04-03T05:20:57.157Z,22.50
2023-04-03T05:21:57.146Z,22.50
2023-04-03T05:22:57.224Z,22.50
2023-04-03T05:23:57.157Z,22.50
2023-04-03T05:24:57.119Z,22.50
2023-04-03T05:25:57.083Z,22.50
2023-04-03T05:26:57.048Z,22.50
2023-04-03T05:27:57.060Z,28.12
2023-04-03T05:28:57.068Z,28.12
2023-04-03T05:29:57.164Z,28.12
2023-04-03T05:30:57.041Z,28.12
2023-04-03T05:31:57.032Z,33.75
2023-04-03T05:32:57.865Z,33.75
2023-04-03T05:33:57.084Z,33.75
2023-04-03T05:34:57.957Z,39.38
2023-04-03T05:35:57.108Z,39.38
2023-04-03T05:36:57.004Z,45.00
2023-04-03T05:37:56.985Z,45.00
2023-04-03T05:38:56.962Z,50.62
2023-04-03T05:39:57.634Z,50.62
2023-04-03T05:40:56.956Z,56.25
2023-04-03T05:41:56.959Z,61.88
2023-04-03T05:42:56.987Z,67.50
2023-04-03T05:43:57.724Z,78.75
2023-04-03T05:44:56.915Z,101.25
2023-04-03T05:45:57.254Z,106.88
2023-04-03T05:46:56.970Z,112.50
2023-04-03T05:47:56.951Z,112.50
2023-04-03T05:48:56.909Z,112.50
2023-04-03T05:49:56.919Z,112.50
2023-04-03T05:50:57.266Z,106.88
2023-04-03T05:51:56.932Z,95.62
2023-04-03T05:52:57.705Z,78.75
2023-04-03T05:53:57.857Z,73.12
2023-04-03T05:54:56.901Z,67.50
2023-04-03T05:55:56.849Z,67.50
2023-04-03T05:56:56.883Z,67.50
2023-04-03T05:57:56.812Z,67.50
2023-04-03T05:58:56.836Z,67.50
2023-04-03T05:59:56.799Z,73.12
2023-04-03T06:00:56.791Z,78.75
2023-04-03T06:01:56.842Z,73.12
2023-04-03T06:02:57.439Z,78.75
2023-04-03T06:03:56.915Z,78.75
2023-04-03T06:04:56.968Z,84.38
2023-04-03T06:05:56.762Z,90.00
2023-04-03T06:06:56.766Z,84.38
2023-04-03T06:07:56.796Z,90.00
2023-04-03T06:08:56.731Z,95.62
2023-04-03T06:09:56.735Z,90.00
2023-04-03T06:10:56.728Z,90.00
2023-04-03T06:11:56.825Z,84.38
2023-04-03T06:12:56.737Z,84.38
2023-04-03T06:13:56.753Z,84.38
2023-04-03T06:14:56.725Z,84.38
2023-04-03T06:15:56.680Z,84.38
2023-04-03T06:16:56.739Z,90.00
2023-04-03T06:17:56.753Z,90.00
2023-04-03T06:18:56.686Z,84.38
2023-04-03T06:19:56.695Z,90.00
2023-04-03T06:20:56.795Z,90.00
2023-04-03T06:21:56.643Z,95.62
2023-04-03T06:22:56.647Z,95.62
2023-04-03T06:23:56.655Z,95.62
2023-04-03T06:24:56.645Z,106.88
2023-04-03T06:25:56.661Z,118.12
2023-04-03T06:26:56.605Z,118.12
2023-04-03T06:27:56.673Z,129.38
2023-04-03T06:28:56.638Z,151.88
2023-04-03T06:29:56.637Z,135.00
2023-04-03T06:30:57.320Z,123.75
2023-04-03T06:31:56.594Z,129.38
2023-04-03T06:32:56.675Z,129.38
2023-04-03T06:33:56.558Z,135.00
2023-04-03T06:34:56.589Z,140.62
2023-04-03T06:35:56.629Z,151.88
2023-04-03T06:36:56.562Z,163.12
2023-04-03T06:37:56.588Z,185.62
2023-04-03T06:38:56.544Z,202.50
2023-04-03T06:39:56.527Z,196.88
2023-04-03T06:40:56.698Z,219.38
2023-04-03T06:41:56.512Z,264.38
2023-04-03T06:42:56.528Z,281.25
2023-04-03T06:43:56.487Z,320.62
2023-04-03T06:44:56.472Z,360.00
2023-04-03T06:45:56.499Z,360.00
2023-04-03T06:46:56.537Z,348.75
2023-04-03T06:47:56.539Z,388.12
2023-04-03T06:48:56.611Z,596.25
2023-04-03T06:49:56.484Z,405.00
2023-04-03T06:50:56.477Z,517.50
2023-04-03T06:51:56.471Z,444.38
2023-04-03T06:52:56.470Z,523.12
2023-04-03T06:53:56.458Z,455.62
2023-04-03T06:54:56.451Z,511.88
2023-04-03T06:55:56.419Z,568.12
2023-04-03T06:56:56.436Z,658.12
2023-04-03T06:57:56.381Z,624.38
2023-04-03T06:58:57.269Z,669.38
2023-04-03T06:59:56.426Z,905.62
2023-04-03T07:00:56.392Z,4533.75
2023-04-03T07:01:56.488Z,4741.88
2023-04-03T07:02:56.412Z,4843.12
2023-04-03T07:03:56.415Z,3493.12
2023-04-03T07:04:56.437Z,4741.88
2023-04-03T07:05:56.359Z,1726.88
2023-04-03T07:06:56.328Z,4078.12
2023-04-03T07:07:56.357Z,4055.62
2023-04-03T07:08:56.333Z,3886.88
2023-04-03T07:09:56.278Z,3915.00
2023-04-03T07:10:56.369Z,4044.38
2023-04-03T07:11:56.328Z,1327.50
2023-04-03T07:12:56.274Z,1035.00
2023-04-03T07:13:56.309Z,573.75
2023-04-03T07:14:56.284Z,427.50
2023-04-03T07:15:56.273Z,483.75
2023-04-03T07:16:56.312Z,511.88
2023-04-03T07:17:56.301Z,849.38
2023-04-03T07:18:56.248Z,506.25
2023-04-03T07:19:56.208Z,843.75
2023-04-03T07:20:56.213Z,871.88
2023-04-03T07:21:57.063Z,466.88
2023-04-03T07:22:56.283Z,410.62
2023-04-03T07:23:56.221Z,315.00
2023-04-03T07:24:56.164Z,292.50
2023-04-03T07:25:56.159Z,286.88
2023-04-03T07:26:56.230Z,292.50
2023-04-03T07:27:56.200Z,275.62
2023-04-03T07:28:56.180Z,270.00
2023-04-03T07:29:56.627Z,303.75
2023-04-03T07:30:56.173Z,388.12
2023-04-03T07:31:56.706Z,320.62
2023-04-03T07:32:56.184Z,309.38
2023-04-03T07:33:56.221Z,286.88
2023-04-03T07:34:57.131Z,247.50
2023-04-03T07:35:56.172Z,219.38
2023-04-03T07:36:56.102Z,213.75
2023-04-03T07:37:56.120Z,230.62
2023-04-03T07:38:56.151Z,258.75
2023-04-03T07:39:56.079Z,303.75
2023-04-03T07:40:56.062Z,382.50
2023-04-03T07:41:56.777Z,371.25
2023-04-03T07:42:56.082Z,309.38
2023-04-03T07:43:56.057Z,281.25
2023-04-03T07:44:56.784Z,292.50
2023-04-03T07:45:56.079Z,1760.62
2023-04-03T07:46:56.770Z,489.38
2023-04-03T07:47:56.065Z,540.00
2023-04-03T07:48:57.419Z,427.50
2023-04-03T07:49:56.107Z,483.75
2023-04-03T07:50:56.021Z,405.00
2023-04-03T07:51:55.976Z,331.88
2023-04-03T07:53:28.692Z,360.00
2023-04-03T07:53:55.971Z,438.75
2023-04-03T07:54:56.814Z,534.38
2023-04-03T07:55:55.971Z,517.50
2023-04-03T07:56:56.077Z,855.00
2023-04-03T07:57:56.756Z,562.50
2023-04-03T07:58:55.953Z,466.88
2023-04-03T07:59:56.742Z,455.62
2023-04-03T08:00:55.979Z,675.00
2023-04-03T08:01:55.930Z,849.38
2023-04-03T08:02:56.215Z,905.62
2023-04-03T08:03:55.983Z,1687.50
2023-04-03T08:04:55.985Z,3532.50
2023-04-03T08:05:56.815Z,5259.38
2023-04-03T08:06:56.690Z,5371.88
2023-04-03T08:07:55.878Z,1192.50
2023-04-03T08:08:55.856Z,3459.38
2023-04-03T08:09:55.851Z,4308.75
2023-04-03T08:10:55.868Z,5011.88
2023-04-03T08:11:55.867Z,5456.25
2023-04-03T08:12:55.828Z,5546.25
2023-04-03T08:13:55.861Z,4072.50
2023-04-03T08:14:55.826Z,4606.88
2023-04-03T08:15:55.789Z,5619.38
2023-04-03T08:16:55.904Z,3718.12
2023-04-03T08:17:55.956Z,3262.50
2023-04-03T08:18:55.791Z,5461.88
2023-04-03T08:19:55.798Z,5731.88
2023-04-03T08:20:55.762Z,5287.50
2023-04-03T08:21:55.804Z,5726.25
2023-04-03T08:22:56.064Z,1305.00
2023-04-03T08:23:55.744Z,5028.75
2023-04-03T08:24:59.532Z,3459.38
2023-04-03T08:25:56.710Z,4269.38
2023-04-03T08:26:55.805Z,2896.88
2023-04-03T08:27:56.638Z,5220.00
2023-04-03T08:28:55.700Z,5101.88
2023-04-03T08:29:55.697Z,4978.12
2023-04-03T08:30:55.683Z,4854.38
2023-04-03T08:31:56.296Z,4961.25
2023-04-03T08:32:55.750Z,4398.75
2023-04-03T08:33:55.694Z,5242.50
2023-04-03T08:34:55.680Z,5411.25
2023-04-03T08:35:55.699Z,5428.12
2023-04-03T08:36:55.719Z,5529.38
2023-04-03T08:37:55.680Z,5495.62
2023-04-03T08:38:55.612Z,5445.00
2023-04-03T08:39:55.644Z,5433.75
2023-04-03T08:40:56.309Z,5310.00
2023-04-03T08:41:55.635Z,5085.00
2023-04-03T08:42:55.644Z,5186.25
2023-04-03T08:43:55.612Z,5169.38
2023-04-03T08:44:56.192Z,5085.00
2023-04-03T08:45:55.694Z,5146.88
2023-04-03T08:46:55.646Z,5191.88
2023-04-03T08:47:56.568Z,5175.00
2023-04-03T08:48:55.576Z,5146.88
2023-04-03T08:49:55.623Z,5310.00
2023-04-03T08:50:56.442Z,5141.25
2023-04-03T08:51:55.547Z,5214.38
2023-04-03T08:52:55.523Z,2446.88
2023-04-03T08:53:55.517Z,1350.00
2023-04-03T08:54:55.530Z,1485.00
2023-04-03T08:55:56.206Z,1164.38
2023-04-03T08:56:55.543Z,2835.00
2023-04-03T08:57:55.517Z,883.12
2023-04-03T08:58:55.474Z,871.88
2023-04-03T08:59:55.474Z,1715.62
2023-04-03T09:00:55.457Z,5158.12
2023-04-03T09:01:55.455Z,793.12
2023-04-03T09:02:55.553Z,748.12
2023-04-03T09:03:55.452Z,1164.38
2023-04-03T09:04:55.461Z,2514.38
2023-04-03T09:05:55.440Z,686.25
2023-04-03T09:06:55.500Z,4713.75
2023-04-03T09:07:55.419Z,3498.75
2023-04-03T09:08:55.433Z,4696.88
2023-04-03T09:09:55.389Z,4573.12
2023-04-03T09:10:55.395Z,4117.50
2023-04-03T09:11:55.356Z,2413.12
2023-04-03T09:12:56.199Z,2486.25
2023-04-03T09:13:55.431Z,2593.12
2023-04-03T09:14:55.404Z,2463.75
2023-04-03T09:15:55.373Z,2266.88
2023-04-03T09:16:55.392Z,2148.75
2023-04-03T09:17:55.379Z,2131.88
2023-04-03T09:18:56.304Z,2098.12
2023-04-03T09:19:55.300Z,2064.38
2023-04-03T09:20:55.360Z,2053.12
2023-04-03T09:21:55.303Z,1524.38
2023-04-03T09:22:55.386Z,1861.88
2023-04-03T09:23:56.155Z,1833.75
2023-04-03T09:24:55.261Z,1873.12
2023-04-03T09:25:55.296Z,1929.38
2023-04-03T09:26:55.259Z,1906.88
2023-04-03T09:27:55.313Z,1850.62
2023-04-03T09:28:55.297Z,1805.62
2023-04-03T09:29:55.231Z,1822.50
2023-04-03T09:30:55.328Z,1839.38
2023-04-03T09:31:55.273Z,1850.62
2023-04-03T09:32:55.253Z,1833.75
2023-04-03T09:33:55.253Z,1749.38
2023-04-03T09:34:55.608Z,1693.12
2023-04-03T09:35:55.228Z,1687.50
2023-04-03T09:36:55.257Z,1642.50
2023-04-03T09:37:55.169Z,1636.88
2023-04-03T09:38:55.257Z,1648.12
2023-04-03T09:39:55.139Z,1648.12
2023-04-03T09:40:55.336Z,1659.38
2023-04-03T09:41:55.144Z,1676.25
2023-04-03T09:43:01.342Z,1715.62
2023-04-03T09:43:57.168Z,1749.38
2023-04-03T09:44:55.123Z,1811.25
2023-04-03T09:45:55.123Z,1878.75
2023-04-03T09:46:55.859Z,1912.50
2023-04-03T09:47:55.223Z,2002.50
2023-04-03T09:49:05.146Z,2098.12
2023-04-03T09:49:57.071Z,2244.38
2023-04-03T09:50:55.109Z,2401.88
2023-04-03T09:51:55.631Z,2621.25
2023-04-03T09:52:55.050Z,2896.88
2023-04-03T09:53:55.828Z,3138.75
2023-04-03T09:54:55.117Z,3324.38
2023-04-03T09:55:55.028Z,3403.12
2023-04-03T09:56:55.064Z,3369.38
2023-04-03T09:57:55.029Z,3313.12
2023-04-03T09:58:55.041Z,3105.00
2023-04-03T09:59:55.125Z,2846.25
2023-04-03T10:00:55.028Z,2576.25
2023-04-03T10:01:54.993Z,2323.12
2023-04-03T10:02:55.002Z,2103.75
2023-04-03T10:03:55.082Z,1923.75
2023-04-03T10:05:08.410Z,1783.12
2023-04-03T10:05:56.973Z,1659.38
2023-04-03T10:06:54.962Z,1546.88
2023-04-03T10:08:03.429Z,1473.75
2023-04-03T10:08:57.871Z,1417.50
2023-04-03T10:09:54.926Z,1355.62
2023-04-03T10:10:54.999Z,1299.38
2023-04-03T10:11:54.904Z,1293.75
2023-04-03T10:12:54.959Z,1276.88
2023-04-03T10:13:54.933Z,1276.88
2023-04-03T10:14:55.825Z,1265.62
2023-04-03T10:15:54.873Z,1226.25
2023-04-03T10:16:54.930Z,1181.25
2023-04-03T10:17:54.921Z,1147.50
2023-04-03T10:18:54.878Z,1130.62
2023-04-03T10:19:54.872Z,1108.12
2023-04-03T10:20:54.855Z,1096.88
2023-04-03T10:21:55.795Z,1102.50
2023-04-03T10:22:54.835Z,1074.38
2023-04-03T10:23:54.841Z,1068.75
2023-04-03T10:24:54.800Z,1057.50
2023-04-03T10:25:54.833Z,1057.50
2023-04-03T10:26:55.626Z,1046.25
2023-04-03T10:27:54.779Z,1040.62
2023-04-03T10:28:54.781Z,1040.62
2023-04-03T10:29:55.372Z,1040.62
2023-04-03T10:30:54.857Z,984.38
2023-04-03T10:31:55.311Z,1080.00
2023-04-03T10:32:54.766Z,1125.00
2023-04-03T10:33:54.747Z,1153.12
2023-04-03T10:35:02.685Z,1057.50
2023-04-03T10:35:57.683Z,821.25
2023-04-03T10:36:55.212Z,1209.38
2023-04-03T10:37:54.703Z,736.88
2023-04-03T10:38:54.687Z,652.50
2023-04-03T10:39:54.706Z,630.00
2023-04-03T10:40:55.306Z,675.00
2023-04-03T10:42:05.554Z,832.50
2023-04-03T10:42:57.384Z,613.12
2023-04-03T10:43:54.654Z,579.38
2023-04-03T10:44:54.675Z,613.12
2023-04-03T10:45:54.700Z,956.25
2023-04-03T10:46:55.659Z,916.88
2023-04-03T10:47:54.725Z,1063.12
2023-04-03T10:48:54.772Z,1091.25
2023-04-03T10:49:59.983Z,866.25
2023-04-03T10:50:56.277Z,680.62
2023-04-03T10:51:54.617Z,618.75
2023-04-03T10:52:55.669Z,590.62
2023-04-03T10:53:54.619Z,607.50
2023-04-03T10:54:54.636Z,916.88
2023-04-03T10:55:54.618Z,1029.38
2023-04-03T10:57:04.431Z,1023.75
2023-04-03T10:57:56.705Z,978.75
2023-04-03T10:58:54.634Z,630.00
2023-04-03T10:59:55.350Z,613.12
2023-04-03T11:00:54.570Z,736.88
2023-04-03T11:01:54.581Z,646.88
2023-04-03T11:02:54.722Z,703.12
2023-04-03T11:03:54.633Z,652.50
2023-04-03T11:04:54.809Z,691.88
2023-04-03T11:05:54.535Z,877.50
2023-04-03T11:06:54.506Z,675.00
2023-04-03T11:07:54.482Z,742.50
2023-04-03T11:08:55.503Z,860.62
2023-04-03T11:09:54.496Z,855.00
2023-04-03T11:10:54.676Z,849.38
2023-04-03T11:11:54.544Z,843.75
2023-04-03T11:12:54.469Z,838.12
2023-04-03T11:13:54.415Z,826.88
2023-04-03T11:14:55.535Z,832.50
2023-04-03T11:15:54.494Z,658.12
2023-04-03T11:16:54.785Z,826.88
2023-04-03T11:17:54.617Z,703.12
2023-04-03T11:18:54.401Z,781.88
2023-04-03T11:19:54.386Z,765.00
2023-04-03T11:20:54.401Z,748.12
2023-04-03T11:21:54.468Z,731.25
2023-04-03T11:22:54.439Z,731.25
2023-04-03T11:23:54.380Z,725.62
2023-04-03T11:24:54.366Z,495.00
2023-04-03T11:25:54.345Z,725.62
2023-04-03T11:26:54.341Z,720.00
2023-04-03T11:27:54.872Z,720.00
2023-04-03T11:28:54.390Z,731.25
2023-04-03T11:29:54.309Z,725.62
2023-04-03T11:30:55.709Z,720.00
2023-04-03T11:31:54.403Z,725.62
2023-04-03T11:32:55.261Z,736.88
2023-04-03T11:33:54.311Z,742.50
2023-04-03T11:34:54.282Z,759.38
2023-04-03T11:35:54.308Z,618.75
2023-04-03T11:36:54.295Z,579.38
2023-04-03T11:37:54.338Z,781.88
2023-04-03T11:38:54.801Z,646.88
2023-04-03T11:39:54.247Z,590.62
2023-04-03T11:40:54.246Z,680.62
2023-04-03T11:42:06.669Z,601.88
2023-04-03T11:42:56.238Z,607.50
2023-04-03T11:43:54.221Z,613.12
2023-04-03T11:44:54.231Z,596.25
2023-04-03T11:45:54.400Z,562.50
2023-04-03T11:46:57.041Z,534.38
2023-04-03T11:47:55.302Z,540.00
2023-04-03T11:48:54.253Z,585.00
2023-04-03T11:49:54.261Z,534.38
2023-04-03T11:50:54.396Z,523.12
2023-04-03T11:51:54.833Z,500.62
2023-04-03T11:52:54.150Z,483.75
2023-04-03T11:53:54.135Z,461.25
2023-04-03T11:54:54.136Z,489.38
2023-04-03T11:55:54.260Z,556.88
2023-04-03T11:56:54.125Z,646.88
2023-04-03T11:57:54.143Z,421.88
2023-04-03T11:58:54.198Z,433.12
2023-04-03T11:59:54.164Z,450.00
2023-04-03T12:00:54.719Z,405.00
2023-04-03T12:01:54.229Z,410.62
2023-04-03T12:02:54.973Z,427.50
2023-04-03T12:03:55.233Z,405.00
2023-04-03T12:04:54.087Z,371.25
2023-04-03T12:05:54.072Z,528.75
2023-04-03T12:06:54.065Z,618.75
2023-04-03T12:07:54.264Z,596.25
2023-04-03T12:08:54.834Z,483.75
2023-04-03T12:09:54.013Z,646.88
2023-04-03T12:10:54.295Z,708.75
2023-04-03T12:11:54.040Z,742.50
2023-04-03T12:12:54.026Z,759.38
2023-04-03T12:13:54.858Z,759.38
2023-04-03T12:14:53.969Z,607.50
2023-04-03T12:15:53.965Z,624.38
2023-04-03T12:16:55.029Z,545.62
2023-04-03T12:17:54.195Z,540.00
2023-04-03T12:18:54.037Z,697.50
2023-04-03T12:19:53.940Z,624.38
2023-04-03T12:20:53.948Z,787.50
2023-04-03T12:21:53.959Z,708.75
2023-04-03T12:22:53.940Z,489.38
2023-04-03T12:23:54.908Z,472.50
2023-04-03T12:24:53.905Z,461.25
2023-04-03T12:25:53.868Z,461.25
2023-04-03T12:26:53.900Z,461.25
2023-04-03T12:27:53.892Z,478.12
2023-04-03T12:28:54.167Z,483.75
2023-04-03T12:29:53.890Z,472.50
2023-04-03T12:30:53.944Z,489.38
2023-04-03T12:31:53.884Z,776.25
2023-04-03T12:33:05.635Z,573.75
2023-04-03T12:33:55.813Z,472.50
2023-04-03T12:34:53.917Z,489.38
2023-04-03T12:35:53.895Z,489.38
2023-04-03T12:36:53.874Z,483.75
2023-04-03T12:37:53.823Z,742.50
2023-04-03T12:38:53.821Z,528.75
2023-04-03T12:39:53.760Z,478.12
2023-04-03T12:40:53.920Z,630.00
2023-04-03T12:41:53.813Z,466.88
2023-04-03T12:42:53.740Z,444.38
2023-04-03T12:43:53.756Z,450.00
2023-04-03T12:44:53.719Z,635.62
2023-04-03T12:45:54.348Z,534.38
2023-04-03T12:46:53.825Z,416.25
2023-04-03T12:47:53.791Z,433.12
2023-04-03T12:48:54.455Z,506.25
2023-04-03T12:49:53.718Z,736.88
2023-04-03T12:50:53.797Z,450.00
2023-04-03T12:51:54.335Z,438.75
2023-04-03T12:52:53.700Z,562.50
2023-04-03T12:53:53.795Z,478.12
2023-04-03T12:54:53.664Z,691.88
2023-04-03T12:55:53.671Z,686.25
2023-04-03T12:56:53.708Z,658.12
2023-04-03T12:57:53.689Z,517.50
2023-04-03T12:58:53.905Z,658.12